Time;durP1;ratioP1;P1;durP2;ratioP2;P2;SDS_P1;SDS_P2;PMS_P1;PMS_P2;Temp;Humidity;BMP_temperature;BMP_pressure;BME280_temperature;BME280_humidity;BME280_pressure;Samples;Min_cycle;Max_cycle;Signal;HPM_P1;HPM_P2
2023/05/29 00:00:05;;;;;;;20.77;6.72;;;18.40;91.30;;;;;;4198394;28;20064;-57
2023/05/29 00:02:07;;;;;;;16.77;7.13;;;18.40;91.40;;;;;;4197742;28;20387;-56
2023/05/29 00:04:11;;;;;;;22.52;7.45;;;18.30;91.40;;;;;;4200309;28;20052;-56
2023/05/29 00:06:14;;;;;;;16.58;6.95;;;18.30;91.40;;;;;;4199648;28;20494;-55
2023/05/29 00:08:16;;;;;;;15.30;6.80;;;18.30;91.50;;;;;;4198275;28;20048;-54
2023/05/29 00:10:18;;;;;;;18.50;7.32;;;18.20;91.50;;;;;;4198452;28;20052;-54
2023/05/29 00:12:21;;;;;;;19.17;7.13;;;18.20;91.50;;;;;;4196406;28;20440;-59
2023/05/29 00:14:23;;;;;;;19.80;6.80;;;18.20;91.50;;;;;;4198612;28;20140;-55
2023/05/29 00:16:26;;;;;;;19.73;7.50;;;18.10;91.60;;;;;;4198501;28;20048;-54
2023/05/29 00:18:28;;;;;;;20.98;7.45;;;18.20;91.60;;;;;;4198103;28;20044;-56
2023/05/29 00:20:34;;;;;;;17.55;6.85;;;18.10;91.50;;;;;;4198588;28;20078;-60
2023/05/29 00:22:37;;;;;;;16.45;6.68;;;18.20;91.80;;;;;;4197495;28;20059;-55
2023/05/29 00:24:39;;;;;;;21.45;6.85;;;18.10;91.50;;;;;;4198123;28;20048;-54
2023/05/29 00:26:41;;;;;;;17.55;7.13;;;18.10;91.60;;;;;;4206907;28;20048;-55
2023/05/29 00:28:43;;;;;;;17.10;7.40;;;18.20;91.50;;;;;;4215282;28;20372;-55
2023/05/29 00:30:46;;;;;;;18.33;6.93;;;18.10;91.60;;;;;;4214592;28;20048;-56
2023/05/29 00:32:48;;;;;;;18.90;7.38;;;18.10;91.60;;;;;;4198377;28;20053;-52
2023/05/29 00:34:51;;;;;;;20.85;7.57;;;18.10;91.70;;;;;;4216541;28;20059;-56
2023/05/29 00:36:55;;;;;;;16.63;7.38;;;18.00;91.70;;;;;;4215825;28;20119;-53
2023/05/29 00:38:57;;;;;;;16.85;6.47;;;18.00;91.70;;;;;;4204052;28;20059;-53
2023/05/29 00:40:59;;;;;;;18.73;6.45;;;18.00;91.70;;;;;;4196476;28;20126;-55
2023/05/29 00:43:02;;;;;;;16.80;6.45;;;17.90;91.90;;;;;;4198364;28;20074;-55
2023/05/29 00:45:06;;;;;;;16.02;6.72;;;17.90;91.90;;;;;;4198514;28;20053;-54
2023/05/29 00:47:09;;;;;;;19.83;6.50;;;17.90;91.80;;;;;;4198542;28;20475;-56
2023/05/29 00:49:12;;;;;;;28.27;7.35;;;17.80;91.90;;;;;;4198322;28;20052;-57
2023/05/29 00:51:15;;;;;;;22.33;7.72;;;17.70;92.00;;;;;;4198006;28;20382;-53
2023/05/29 00:53:20;;;;;;;18.65;6.88;;;17.70;92.00;;;;;;4197792;28;20042;-55
2023/05/29 00:55:22;;;;;;;;;;;17.70;92.00;;;;;;4197622;28;20408;-55
2023/05/29 00:57:24;;;;;;;21.58;6.93;;;17.70;92.10;;;;;;4197612;28;19963;-54
2023/05/29 00:59:28;;;;;;;18.85;6.80;;;17.60;92.10;;;;;;4197854;28;20060;-57
2023/05/29 01:01:32;;;;;;;19.17;7.63;;;17.60;92.20;;;;;;4196679;28;20064;-57
2023/05/29 01:03:35;;;;;;;20.33;7.57;;;17.50;92.30;;;;;;4197737;28;20048;-57
2023/05/29 01:05:38;;;;;;;17.27;6.40;;;17.50;92.30;;;;;;4197574;28;20464;-63
2023/05/29 01:07:41;;;;;;;22.02;7.07;;;17.50;92.40;;;;;;4197191;28;20060;-57
2023/05/29 01:09:44;;;;;;;14.35;6.50;;;17.40;92.50;;;;;;4197383;28;20071;-57
2023/05/29 01:11:54;;;;;;;30.15;8.10;;;17.40;92.50;;;;;;4194616;28;20548;-57
2023/05/29 01:13:59;;;;;;;17.58;6.47;;;17.40;92.50;;;;;;4197493;28;20477;-54
2023/05/29 01:16:12;;;;;;;19.52;7.30;;;17.30;92.60;;;;;;4197305;28;20074;-54
2023/05/29 01:18:26;;;;;;;16.48;6.75;;;17.30;92.80;;;;;;4197397;28;20122;-54
2023/05/29 01:20:35;;;;;;;20.20;7.10;;;17.10;92.90;;;;;;4196886;28;20128;-60
2023/05/29 01:22:54;;;;;;;17.27;6.65;;;17.10;92.90;;;;;;4196242;28;20076;-53
2023/05/29 01:25:11;;;;;;;16.35;6.65;;;17.10;93.10;;;;;;4195943;28;20480;-54
2023/05/29 01:27:18;;;;;;;20.48;6.78;;;17.10;93.10;;;;;;4210232;28;20048;-54
2023/05/29 01:29:24;;;;;;;19.27;7.13;;;17.00;93.20;;;;;;4214222;28;20052;-55
2023/05/29 01:31:29;;;;;;;17.45;6.40;;;16.90;93.20;;;;;;4212814;28;20462;-56
2023/05/29 01:33:32;;;;;;;20.65;6.82;;;17.00;93.30;;;;;;4213646;28;20044;-56
2023/05/29 01:35:34;;;;;;;14.63;6.68;;;16.90;93.30;;;;;;4195737;28;20054;-52
2023/05/29 01:37:36;;;;;;;18.92;6.45;;;16.90;93.30;;;;;;4213730;28;20040;-55
2023/05/29 01:39:39;;;;;;;15.18;6.35;;;16.90;93.40;;;;;;4197312;28;20048;-53
2023/05/29 01:41:42;;;;;;;19.90;7.03;;;16.80;93.40;;;;;;4196878;28;20135;-54
2023/05/29 01:43:47;;;;;;;16.33;6.88;;;16.80;93.50;;;;;;4179379;28;20518;-57
2023/05/29 01:45:50;;;;;;;17.83;7.03;;;16.80;93.40;;;;;;4198020;28;20115;-57
2023/05/29 01:47:53;;;;;;;16.98;7.35;;;16.80;93.60;;;;;;4197189;28;20091;-57
2023/05/29 01:49:56;;;;;;;16.55;6.70;;;16.70;93.60;;;;;;4197714;28;20074;-55
2023/05/29 01:51:58;;;;;;;20.35;7.10;;;16.70;93.60;;;;;;4196364;28;20040;-56
2023/05/29 01:54:01;;;;;;;13.45;6.45;;;16.70;93.70;;;;;;4197751;28;20123;-56
2023/05/29 01:56:04;;;;;;;16.38;6.80;;;16.70;93.60;;;;;;4196416;28;20149;-56
2023/05/29 01:58:07;;;;;;;19.58;6.57;;;16.70;93.60;;;;;;4197663;28;20053;-56
2023/05/29 02:00:12;;;;;;;16.58;6.70;;;16.70;93.60;;;;;;4197489;28;20072;-55
2023/05/29 02:02:14;;;;;;;;;;;16.70;93.70;;;;;;4196767;28;20053;-56
2023/05/29 02:04:16;;;;;;;20.48;6.78;;;16.60;93.70;;;;;;4196737;28;19920;-56
2023/05/29 02:06:19;;;;;;;19.90;6.47;;;16.50;93.90;;;;;;4197189;28;20044;-55
2023/05/29 02:08:21;;;;;;;22.67;8.25;;;16.50;93.90;;;;;;4196935;28;20098;-57
2023/05/29 02:10:23;;;;;;;20.38;7.15;;;16.50;94.00;;;;;;4196787;28;20124;-56
2023/05/29 02:12:25;;;;;;;17.80;6.68;;;16.50;93.90;;;;;;4195860;28;20044;-57
2023/05/29 02:14:27;;;;;;;21.77;6.93;;;16.50;94.10;;;;;;4196811;28;20501;-57
2023/05/29 02:16:33;;;;;;;18.75;6.60;;;16.50;94.10;;;;;;4197116;28;20139;-53
2023/05/29 02:18:36;;;;;;;21.33;7.40;;;16.50;94.00;;;;;;4196582;28;20048;-54
2023/05/29 02:20:38;;;;;;;14.73;6.63;;;16.50;94.10;;;;;;4196804;28;20045;-53
2023/05/29 02:22:40;;;;;;;22.13;6.78;;;16.40;94.30;;;;;;4198220;28;20052;-53
2023/05/29 02:24:42;;;;;;;16.13;7.13;;;16.40;94.30;;;;;;4200248;28;20071;-54
2023/05/29 02:26:47;;;;;;;18.50;6.55;;;16.40;94.40;;;;;;4209012;28;20540;-53
2023/05/29 02:28:49;;;;;;;14.93;6.20;;;16.40;94.50;;;;;;4216873;28;20094;-53
2023/05/29 02:30:52;;;;;;;16.30;6.55;;;16.30;94.50;;;;;;4216813;28;20047;-54
2023/05/29 02:32:57;;;;;;;23.38;7.30;;;16.30;94.60;;;;;;4215667;28;20044;-54
2023/05/29 02:34:59;;;;;;;16.17;6.30;;;16.40;94.50;;;;;;4217502;28;20128;-53
2023/05/29 02:37:02;;;;;;;15.52;6.05;;;16.30;94.50;;;;;;4217278;28;20067;-53
2023/05/29 02:39:05;;;;;;;16.35;6.85;;;16.30;94.70;;;;;;4204882;28;20372;-55
2023/05/29 02:41:07;;;;;;;14.65;6.68;;;16.30;94.60;;;;;;4199191;28;20472;-53
2023/05/29 02:43:12;;;;;;;15.50;7.38;;;16.20;94.80;;;;;;4199230;28;20099;-59
2023/05/29 02:45:14;;;;;;;20.23;7.68;;;16.20;94.80;;;;;;4199716;28;20049;-54
2023/05/29 02:47:16;;;;;;;16.27;6.50;;;16.20;94.90;;;;;;4199751;28;20044;-53
2023/05/29 02:49:19;;;;;;;18.10;7.88;;;16.20;95.00;;;;;;4199409;28;20052;-56
2023/05/29 02:51:21;;;;;;;25.42;7.63;;;16.20;95.10;;;;;;4198818;28;20279;-57
2023/05/29 02:53:23;;;;;;;20.00;6.68;;;16.10;95.10;;;;;;4199280;28;20063;-56
2023/05/29 02:55:25;;;;;;;18.50;6.93;;;16.20;95.20;;;;;;4199529;28;20048;-56
2023/05/29 02:57:29;;;;;;;20.50;6.70;;;16.10;95.40;;;;;;4199578;28;20465;-58
2023/05/29 02:59:32;;;;;;;13.43;6.97;;;16.00;95.50;;;;;;4199320;28;20461;-55
2023/05/29 03:01:34;;;;;;;19.55;7.43;;;15.90;95.50;;;;;;4198680;28;20123;-56
2023/05/29 03:03:36;;;;;;;16.58;7.00;;;16.00;95.60;;;;;;4199047;28;20044;-56
2023/05/29 03:05:39;;;;;;;19.83;7.45;;;16.00;95.60;;;;;;4199273;28;20127;-55
2023/05/29 03:07:41;;;;;;;19.98;7.30;;;15.90;95.80;;;;;;4199442;28;20071;-55
2023/05/29 03:09:44;;;;;;;20.98;8.05;;;15.80;95.90;;;;;;4199386;28;20048;-55
2023/05/29 03:11:47;;;;;;;16.45;7.15;;;15.80;96.00;;;;;;4198508;28;20051;-56
2023/05/29 03:13:49;;;;;;;20.83;7.40;;;15.80;96.00;;;;;;4199239;28;20067;-57
2023/05/29 03:15:56;;;;;;;18.88;8.20;;;15.80;96.10;;;;;;4199223;28;20161;-54
2023/05/29 03:17:59;;;;;;;22.63;8.00;;;15.80;96.20;;;;;;4198857;28;20119;-53
2023/05/29 03:20:02;;;;;;;16.30;7.18;;;15.80;96.30;;;;;;4199146;28;20048;-53
2023/05/29 03:22:09;;;;;;;16.67;6.80;;;15.60;96.50;;;;;;4198173;28;20064;-56
2023/05/29 03:24:13;;;;;;;16.87;8.27;;;15.60;96.90;;;;;;4199635;28;20123;-57
2023/05/29 03:26:15;;;;;;;22.25;7.88;;;15.60;96.80;;;;;;4204181;28;20050;-55
2023/05/29 03:28:17;;;;;;;17.17;7.78;;;15.50;96.70;;;;;;4217639;28;20044;-58
2023/05/29 03:30:20;;;;;;;16.70;8.10;;;15.50;96.90;;;;;;4217215;28;20473;-56
2023/05/29 03:32:22;;;;;;;25.33;8.70;;;15.50;97.00;;;;;;4214948;28;20046;-53
2023/05/29 03:34:26;;;;;;;18.75;8.10;;;15.40;97.20;;;;;;4215234;28;20079;-53
2023/05/29 03:36:28;;;;;;;24.47;8.57;;;15.30;97.30;;;;;;4215969;28;20175;-53
2023/05/29 03:38:32;;;;;;;21.05;7.80;;;15.30;97.40;;;;;;4208617;28;20469;-53
2023/05/29 03:40:34;;;;;;;24.42;8.30;;;15.40;97.30;;;;;;4199300;28;20418;-54
2023/05/29 03:42:36;;;;;;;15.55;8.13;;;15.40;97.40;;;;;;4198371;28;20053;-57
2023/05/29 03:44:38;;;;;;;19.52;8.25;;;15.40;97.40;;;;;;4199529;28;20452;-57
2023/05/29 03:46:40;;;;;;;19.52;8.90;;;15.30;97.40;;;;;;4200436;28;20055;-56
2023/05/29 03:48:43;;;;;;;20.77;8.60;;;15.40;97.40;;;;;;4201491;28;20057;-56
2023/05/29 03:50:46;;;;;;;22.63;9.05;;;15.30;97.50;;;;;;4200085;28;20060;-56
2023/05/29 03:52:48;;;;;;;26.35;9.30;;;15.40;97.40;;;;;;4199933;28;20128;-59
2023/05/29 03:54:51;;;;;;;19.58;8.75;;;15.40;97.40;;;;;;4198970;28;20055;-54
2023/05/29 03:56:53;;;;;;;23.58;9.40;;;15.30;97.40;;;;;;4198818;28;20044;-53
2023/05/29 03:58:55;;;;;;;22.17;9.23;;;15.30;97.60;;;;;;4198639;28;20045;-56
2023/05/29 04:00:58;;;;;;;20.83;8.75;;;15.30;97.60;;;;;;4197348;28;20044;-56
2023/05/29 04:03:00;;;;;;;21.02;9.13;;;15.30;97.60;;;;;;4197431;28;20116;-57
2023/05/29 04:05:03;;;;;;;21.70;9.15;;;15.40;97.60;;;;;;4198983;28;20071;-54
2023/05/29 04:07:06;;;;;;;20.95;9.90;;;15.30;97.70;;;;;;4198505;28;20056;-56
2023/05/29 04:09:08;;;;;;;21.00;8.98;;;15.30;97.90;;;;;;4198635;28;20052;-56
2023/05/29 04:11:13;;;;;;;18.05;8.75;;;15.30;97.90;;;;;;4198597;28;20131;-56
2023/05/29 04:13:15;;;;;;;25.45;9.82;;;15.30;97.70;;;;;;4197453;28;20040;-56
2023/05/29 04:15:17;;;;;;;18.05;9.38;;;15.30;97.70;;;;;;4198223;28;20070;-56
2023/05/29 04:17:19;;;;;;;17.63;9.50;;;15.30;97.90;;;;;;4198263;28;20051;-56
2023/05/29 04:19:21;;;;;;;21.40;9.45;;;15.30;97.80;;;;;;4198419;28;20119;-55
2023/05/29 04:21:24;;;;;;;20.85;9.88;;;15.40;97.70;;;;;;4198293;28;20041;-56
2023/05/29 04:23:26;;;;;;;22.67;9.18;;;15.40;97.80;;;;;;4197469;28;20049;-56
2023/05/29 04:25:29;;;;;;;28.10;10.75;;;15.30;97.90;;;;;;4197004;28;20144;-56
2023/05/29 04:27:37;;;;;;;30.70;10.32;;;15.30;97.80;;;;;;4213497;28;20055;-58
2023/05/29 04:29:40;;;;;;;21.67;10.07;;;15.20;98.00;;;;;;4214665;28;20448;-56
2023/05/29 04:31:42;;;;;;;20.00;9.70;;;15.20;98.20;;;;;;4214238;28;20086;-57
2023/05/29 04:33:45;;;;;;;24.20;11.02;;;15.20;98.30;;;;;;4214550;28;20036;-57
2023/05/29 04:35:48;;;;;;;16.77;9.38;;;15.20;98.20;;;;;;4215070;28;20131;-57
2023/05/29 04:37:50;;;;;;;22.90;11.25;;;15.30;98.20;;;;;;4213329;28;20389;-57
2023/05/29 04:39:52;;;;;;;22.98;10.40;;;15.30;98.20;;;;;;4198174;28;20106;-57
2023/05/29 04:41:56;;;;;;;21.73;10.40;;;15.20;98.20;;;;;;4197032;28;20124;-56
2023/05/29 04:43:59;;;;;;;18.85;9.40;;;15.20;98.30;;;;;;4197801;28;20044;-59
2023/05/29 04:46:02;;;;;;;25.80;10.98;;;15.20;98.30;;;;;;4197336;28;20474;-57
2023/05/29 04:48:05;;;;;;;19.45;9.82;;;15.20;98.20;;;;;;4197661;28;20048;-58
2023/05/29 04:50:09;;;;;;;23.98;11.07;;;15.20;98.30;;;;;;4197990;28;20132;-57
2023/05/29 04:52:13;;;;;;;24.73;11.77;;;15.20;98.40;;;;;;4196657;28;20459;-58
2023/05/29 04:54:16;;;;;;;20.33;10.20;;;15.20;98.70;;;;;;4197501;28;20106;-56
2023/05/29 04:56:18;;;;;;;19.92;11.07;;;15.20;98.40;;;;;;4197861;28;20075;-57
2023/05/29 04:58:21;;;;;;;18.30;10.60;;;15.20;98.30;;;;;;4197433;28;20064;-56
2023/05/29 05:00:25;;;;;;;21.52;11.80;;;15.20;98.50;;;;;;4197501;28;20091;-56
2023/05/29 05:02:27;;;;;;;22.73;11.80;;;15.30;98.30;;;;;;4196625;28;20054;-56
2023/05/29 05:04:30;;;;;;;16.25;10.52;;;15.20;98.40;;;;;;4197607;28;20040;-57
2023/05/29 05:06:32;;;;;;;23.55;11.00;;;15.20;98.40;;;;;;4197524;28;20083;-58
2023/05/29 05:08:34;;;;;;;25.77;12.35;;;15.20;98.50;;;;;;4197668;28;20127;-56
2023/05/29 05:10:36;;;;;;;22.48;10.98;;;15.20;98.40;;;;;;4200089;28;20054;-63
2023/05/29 05:12:38;;;;;;;26.83;11.70;;;15.10;98.70;;;;;;4197649;28;20045;-61
2023/05/29 05:14:41;;;;;;;25.90;11.52;;;15.10;98.70;;;;;;4198178;28;20052;-57
2023/05/29 05:16:45;;;;;;;22.15;11.63;;;15.10;98.80;;;;;;4197365;28;20079;-56
2023/05/29 05:18:47;;;;;;;22.67;11.73;;;15.20;98.70;;;;;;4197711;28;20055;-57
2023/05/29 05:20:50;;;;;;;20.70;11.30;;;15.20;98.60;;;;;;4197395;28;20130;-57
2023/05/29 05:22:52;;;;;;;29.23;11.80;;;15.30;98.40;;;;;;4196268;28;20123;-53
2023/05/29 05:24:54;;;;;;;28.10;12.23;;;15.30;98.50;;;;;;4197722;28;20048;-54
2023/05/29 05:26:57;;;;;;;33.30;11.95;;;15.20;98.50;;;;;;4207772;28;20126;-54
2023/05/29 05:29:00;;;;;;;40.95;12.45;;;15.30;98.60;;;;;;4214223;28;20047;-52
2023/05/29 05:31:02;;;;;;;31.98;11.60;;;15.40;98.50;;;;;;4214276;28;20064;-54
2023/05/29 05:33:06;;;;;;;38.30;12.73;;;15.40;98.30;;;;;;4212979;28;20051;-56
2023/05/29 05:35:11;;;;;;;31.88;12.00;;;15.30;98.30;;;;;;4213843;28;20040;-53
2023/05/29 05:37:13;;;;;;;26.55;11.95;;;15.30;98.30;;;;;;4214109;28;20078;-54
2023/05/29 05:39:15;;;;;;;20.70;10.95;;;15.40;98.40;;;;;;4200510;28;20123;-54
2023/05/29 05:41:18;;;;;;;22.20;11.43;;;15.40;98.30;;;;;;4197152;28;20048;-54
2023/05/29 05:43:21;;;;;;;23.65;11.85;;;15.40;98.30;;;;;;4195458;28;20091;-54
2023/05/29 05:45:23;;;;;;;29.42;11.98;;;15.40;98.20;;;;;;4197356;28;20394;-54
2023/05/29 05:47:30;;;;;;;19.85;11.90;;;15.40;98.20;;;;;;4197035;28;20045;-53
2023/05/29 05:49:33;;;;;;;20.92;10.00;;;15.30;98.30;;;;;;4196808;28;20036;-53
2023/05/29 05:51:35;;;;;;;30.52;12.43;;;15.40;98.30;;;;;;4195988;28;20044;-55
2023/05/29 05:53:38;;;;;;;18.05;11.20;;;15.50;98.10;;;;;;4196079;28;20123;-54
2023/05/29 05:55:42;;;;;;;27.40;11.43;;;15.50;98.20;;;;;;4196966;28;20272;-56
2023/05/29 05:57:44;;;;;;;23.08;11.32;;;15.50;98.20;;;;;;4201226;28;20513;-56
2023/05/29 05:59:46;;;;;;;17.50;11.05;;;15.50;98.00;;;;;;4202367;28;20413;-57
2023/05/29 06:01:48;;;;;;;27.15;11.80;;;15.40;98.20;;;;;;4201873;28;20048;-56
2023/05/29 06:03:50;;;;;;;30.15;11.77;;;15.50;98.10;;;;;;4202296;28;20063;-56
2023/05/29 06:05:55;;;;;;;17.48;11.07;;;15.50;98.00;;;;;;4202704;28;20044;-56
2023/05/29 06:07:57;;;;;;;24.30;11.85;;;15.50;98.10;;;;;;4201974;28;20127;-56
2023/05/29 06:09:59;;;;;;;22.15;11.88;;;15.50;97.90;;;;;;4202550;28;20425;-55
2023/05/29 06:12:01;;;;;;;26.20;11.25;;;15.50;98.10;;;;;;4201197;28;20121;-56
2023/05/29 06:14:03;;;;;;;22.92;12.80;;;15.50;97.90;;;;;;4202123;28;20079;-55
2023/05/29 06:16:05;;;;;;;22.83;11.48;;;15.50;98.00;;;;;;4202486;28;20502;-56
2023/05/29 06:18:08;;;;;;;26.65;11.15;;;15.50;98.00;;;;;;4202367;28;20040;-55
2023/05/29 06:20:11;;;;;;;24.35;11.65;;;15.60;98.00;;;;;;4202266;28;20494;-57
2023/05/29 06:22:15;;;;;;;24.27;11.30;;;15.60;97.70;;;;;;4201173;28;20377;-53
2023/05/29 06:24:17;;;;;;;20.08;11.02;;;15.70;97.60;;;;;;4202422;28;20040;-56
2023/05/29 06:26:20;;;;;;;20.60;10.88;;;15.70;97.70;;;;;;4207572;28;20062;-57
2023/05/29 06:28:24;;;;;;;27.17;11.65;;;15.70;97.80;;;;;;4218893;28;20492;-58
2023/05/29 06:30:29;;;;;;;21.95;11.20;;;15.80;97.40;;;;;;4219327;28;20474;-56
2023/05/29 06:32:31;;;;;;;17.73;10.45;;;15.80;97.50;;;;;;4217868;28;20074;-57
2023/05/29 06:34:33;;;;;;;29.33;11.45;;;15.90;97.50;;;;;;4218902;28;20432;-60
2023/05/29 06:36:35;;;;;;;28.73;11.57;;;16.00;97.30;;;;;;4219126;28;20047;-56
2023/05/29 06:38:40;;;;;;;21.30;10.43;;;16.10;97.10;;;;;;4200911;28;20044;-57
2023/05/29 06:40:44;;;;;;;25.85;11.98;;;16.10;96.90;;;;;;4202098;28;20044;-53
2023/05/29 06:42:46;;;;;;;19.15;10.57;;;16.10;96.90;;;;;;4201200;28;20127;-53
2023/05/29 06:44:48;;;;;;;20.48;10.20;;;16.00;96.90;;;;;;4202378;28;20425;-53
2023/05/29 06:46:50;;;;;;;21.30;11.55;;;16.10;97.00;;;;;;4202342;28;20048;-54
2023/05/29 06:48:53;;;;;;;17.15;11.15;;;16.20;96.90;;;;;;4202734;28;20045;-53
2023/05/29 06:50:55;;;;;;;18.17;10.90;;;16.30;96.80;;;;;;4202615;28;20121;-54
2023/05/29 06:52:57;;;;;;;18.85;10.82;;;16.40;96.50;;;;;;4201318;28;20098;-55
2023/05/29 06:55:01;;;;;;;18.80;10.30;;;16.40;96.40;;;;;;4203107;28;20059;-54
2023/05/29 06:57:03;;;;;;;18.42;10.35;;;16.50;96.10;;;;;;4202617;28;20382;-59
2023/05/29 06:59:12;;;;;;;21.25;11.10;;;16.50;96.20;;;;;;4204110;28;20051;-53
2023/05/29 07:01:16;;;;;;;19.45;10.48;;;16.50;96.10;;;;;;4204945;28;20048;-55
2023/05/29 07:03:19;;;;;;;17.95;10.02;;;16.60;96.20;;;;;;4202896;28;20049;-54
2023/05/29 07:05:22;;;;;;;22.77;10.77;;;16.70;96.10;;;;;;4203778;28;20104;-54
2023/05/29 07:07:24;;;;;;;20.92;10.30;;;17.00;95.60;;;;;;4202956;28;20048;-54
2023/05/29 07:09:27;;;;;;;26.02;11.05;;;17.00;95.40;;;;;;4198575;28;20044;-54
2023/05/29 07:11:31;;;;;;;20.90;10.00;;;17.10;95.40;;;;;;4199649;28;20147;-57
2023/05/29 07:13:33;;;;;;;16.25;9.57;;;17.20;95.10;;;;;;4198375;28;20051;-54
2023/05/29 07:15:38;;;;;;;20.85;10.20;;;17.30;94.80;;;;;;4199372;28;20049;-54
2023/05/29 07:17:40;;;;;;;;;;;17.40;94.90;;;;;;4200083;28;20131;-54
2023/05/29 07:19:42;;;;;;;19.10;9.95;;;17.40;94.70;;;;;;4199190;28;19941;-57
2023/05/29 07:21:44;;;;;;;15.07;9.38;;;17.40;94.70;;;;;;4199273;28;20586;-57
2023/05/29 07:23:46;;;;;;;21.75;9.98;;;17.40;94.50;;;;;;4198055;28;20072;-57
2023/05/29 07:25:48;;;;;;;31.98;10.45;;;17.40;94.60;;;;;;4200279;28;20072;-58
2023/05/29 07:27:51;;;;;;;20.27;10.63;;;17.50;94.60;;;;;;4215667;28;20048;-57
2023/05/29 07:29:54;;;;;;;19.38;9.50;;;17.50;94.60;;;;;;4198003;28;20072;-57
2023/05/29 07:31:56;;;;;;;17.17;9.48;;;17.60;94.50;;;;;;4215653;28;20082;-57
2023/05/29 07:33:58;;;;;;;18.95;9.80;;;17.50;94.50;;;;;;4214753;28;20083;-57
2023/05/29 07:36:00;;;;;;;16.40;9.30;;;17.50;94.50;;;;;;4215850;28;20044;-57
2023/05/29 07:38:02;;;;;;;19.65;9.40;;;17.60;94.60;;;;;;4212253;28;20450;-56
2023/05/29 07:40:05;;;;;;;23.88;9.43;;;17.70;94.40;;;;;;4198620;28;20062;-56
2023/05/29 07:42:09;;;;;;;20.08;9.15;;;17.90;94.30;;;;;;4198274;28;20394;-57
2023/05/29 07:44:12;;;;;;;20.30;9.38;;;18.00;94.00;;;;;;4198964;28;20056;-57
2023/05/29 07:46:15;;;;;;;18.15;9.57;;;18.10;93.80;;;;;;4198764;28;20131;-57
2023/05/29 07:48:17;;;;;;;19.40;8.85;;;18.20;93.90;;;;;;4198731;28;20123;-57
2023/05/29 07:50:20;;;;;;;20.90;9.10;;;18.20;93.90;;;;;;4198926;28;20166;-58
2023/05/29 07:52:22;;;;;;;16.92;8.98;;;18.40;93.40;;;;;;4197837;28;20052;-55
2023/05/29 07:54:24;;;;;;;20.15;8.57;;;18.60;93.40;;;;;;4199017;28;20045;-54
2023/05/29 07:56:27;;;;;;;16.73;8.68;;;18.60;93.30;;;;;;4197463;28;20060;-54
2023/05/29 07:58:29;;;;;;;16.05;7.97;;;18.70;93.40;;;;;;4198535;28;20111;-58
2023/05/29 08:00:33;;;;;;;20.65;8.65;;;18.70;93.20;;;;;;4198541;28;20071;-55
2023/05/29 08:02:36;;;;;;;21.63;8.98;;;18.90;93.00;;;;;;4197771;28;20203;-55
2023/05/29 08:04:38;;;;;;;17.73;9.45;;;19.00;92.70;;;;;;4198305;28;20051;-55
2023/05/29 08:06:42;;;;;;;16.50;8.15;;;18.90;92.60;;;;;;4198291;28;20049;-55
2023/05/29 08:08:44;;;;;;;16.02;8.00;;;18.70;92.50;;;;;;4198521;28;20105;-60
2023/05/29 08:10:46;;;;;;;14.90;8.23;;;18.70;92.60;;;;;;4198279;28;20037;-55
2023/05/29 08:12:50;;;;;;;15.90;7.38;;;18.70;92.80;;;;;;4197570;28;20045;-54
2023/05/29 08:14:52;;;;;;;20.40;8.60;;;19.00;92.80;;;;;;4198614;28;20454;-55
2023/05/29 08:16:55;;;;;;;19.63;8.88;;;19.20;92.40;;;;;;4198377;28;20131;-55
2023/05/29 08:18:58;;;;;;;17.55;8.07;;;19.00;92.40;;;;;;4198067;28;20047;-56
2023/05/29 08:21:00;;;;;;;17.02;8.65;;;19.10;92.50;;;;;;4197652;28;20124;-56
2023/05/29 08:23:03;;;;;;;15.18;7.72;;;19.20;92.30;;;;;;4197270;28;20067;-55
2023/05/29 08:25:05;;;;;;;13.35;7.32;;;19.40;92.30;;;;;;4198312;28;20044;-55
2023/05/29 08:27:08;;;;;;;16.92;7.47;;;19.40;92.00;;;;;;4210395;28;20415;-55
2023/05/29 08:29:10;;;;;;;22.30;9.02;;;19.40;92.10;;;;;;4196880;28;20049;-55
2023/05/29 08:31:13;;;;;;;16.60;8.30;;;19.50;92.20;;;;;;4215206;28;20056;-55
2023/05/29 08:33:16;;;;;;;15.20;8.15;;;19.60;92.00;;;;;;4214040;28;20040;-56
2023/05/29 08:35:18;;;;;;;16.88;8.05;;;19.70;92.00;;;;;;4197728;28;20474;-56
2023/05/29 08:37:20;;;;;;;12.75;8.02;;;19.70;91.50;;;;;;4214819;28;20477;-55
2023/05/29 08:39:22;;;;;;;16.25;7.95;;;19.50;91.60;;;;;;4200619;28;20049;-55
2023/05/29 08:41:29;;;;;;;13.57;8.18;;;19.50;91.60;;;;;;4196838;28;20045;-55
2023/05/29 08:43:32;;;;;;;17.15;7.95;;;19.20;91.80;;;;;;4196703;28;20080;-56
2023/05/29 08:45:36;;;;;;;18.25;7.93;;;19.20;91.90;;;;;;4197853;28;20048;-55
2023/05/29 08:47:40;;;;;;;14.13;8.10;;;19.40;91.90;;;;;;4197797;28;20053;-55
2023/05/29 08:49:53;;;;;;;14.30;8.32;;;19.40;91.80;;;;;;4197742;28;20127;-55
2023/05/29 08:52:01;;;;;;;16.23;7.68;;;19.50;91.70;;;;;;4196609;28;20553;-55
2023/05/29 08:54:04;;;;;;;16.83;8.27;;;19.70;91.60;;;;;;4196747;28;20418;-56
2023/05/29 08:56:08;;;;;;;15.48;8.07;;;19.80;91.20;;;;;;4197629;28;20080;-54
2023/05/29 08:58:20;;;;;;;16.27;7.80;;;19.60;91.10;;;;;;4197933;28;20121;-55
2023/05/29 09:00:28;;;;;;;;;;;19.60;91.50;;;;;;4198380;28;20068;-56
2023/05/29 09:02:30;;;;;;;15.52;8.85;;;19.80;91.40;;;;;;4196820;28;19920;-55
2023/05/29 09:04:32;;;;;;;17.40;8.57;;;19.70;91.30;;;;;;4197127;28;20055;-56
2023/05/29 09:06:36;;;;;;;17.10;9.23;;;19.80;91.20;;;;;;4197511;28;20048;-55
2023/05/29 09:08:39;;;;;;;19.17;8.32;;;19.90;91.10;;;;;;4197468;28;20414;-57
2023/05/29 09:10:43;;;;;;;17.65;9.48;;;19.70;91.30;;;;;;4197519;28;20044;-55
2023/05/29 09:12:46;;;;;;;13.48;8.45;;;19.80;90.90;;;;;;4196438;28;20055;-54
2023/05/29 09:14:48;;;;;;;20.05;10.32;;;19.70;91.20;;;;;;4197494;28;20049;-54
2023/05/29 09:16:50;;;;;;;19.15;9.15;;;19.90;91.20;;;;;;4197476;28;20044;-54
2023/05/29 09:19:03;;;;;;;13.02;7.80;;;19.90;91.00;;;;;;4197053;28;20532;-54
2023/05/29 09:21:10;;;;;;;14.85;7.80;;;20.00;91.10;;;;;;4196020;28;20408;-55
2023/05/29 09:23:14;;;;;;;15.80;8.32;;;20.10;90.80;;;;;;4196200;28;20052;-54
2023/05/29 09:25:21;;;;;;;21.92;9.38;;;20.10;90.70;;;;;;4197615;28;20045;-56
2023/05/29 09:27:23;;;;;;;13.77;8.85;;;20.10;91.20;;;;;;4211953;28;20052;-57
2023/05/29 09:29:25;;;;;;;15.98;8.57;;;20.20;90.80;;;;;;4213818;28;20040;-57
2023/05/29 09:31:28;;;;;;;15.07;9.65;;;20.40;90.60;;;;;;4213462;28;20461;-58
2023/05/29 09:33:30;;;;;;;18.15;8.38;;;20.40;90.40;;;;;;4212258;28;20074;-56
2023/05/29 09:35:34;;;;;;;15.00;8.88;;;20.50;90.60;;;;;;4214207;28;20071;-57
2023/05/29 09:37:41;;;;;;;19.30;8.13;;;20.60;90.50;;;;;;4214398;28;20050;-56
2023/05/29 09:39:48;;;;;;;17.92;9.40;;;20.80;90.10;;;;;;4197355;28;20070;-57
2023/05/29 09:41:54;;;;;;;16.67;9.02;;;20.80;90.00;;;;;;4197349;28;20079;-57
2023/05/29 09:43:56;;;;;;;14.38;8.77;;;20.90;89.80;;;;;;4196107;28;20071;-56
2023/05/29 09:46:00;;;;;;;18.48;9.55;;;21.00;90.00;;;;;;4197227;28;20078;-57
2023/05/29 09:48:04;;;;;;;20.50;9.70;;;20.90;89.80;;;;;;4196699;28;20053;-57
2023/05/29 09:50:17;;;;;;;14.82;9.55;;;21.00;89.60;;;;;;4197145;28;20070;-56
2023/05/29 09:52:22;;;;;;;21.02;9.48;;;21.00;89.60;;;;;;4197009;28;20495;-62
2023/05/29 09:54:28;;;;;;;21.73;9.68;;;21.10;89.20;;;;;;4195897;28;20155;-57
2023/05/29 09:56:32;;;;;;;16.25;9.23;;;21.10;89.40;;;;;;4197304;28;20478;-56
2023/05/29 09:58:38;;;;;;;18.20;8.52;;;21.10;89.50;;;;;;4197032;28;20044;-56
2023/05/29 10:00:41;;;;;;;19.45;9.73;;;21.20;88.80;;;;;;4196936;28;20049;-55
2023/05/29 10:02:43;;;;;;;27.48;10.15;;;21.10;88.60;;;;;;4195744;28;20068;-56
2023/05/29 10:04:49;;;;;;;15.60;10.43;;;21.10;88.80;;;;;;4179103;28;20136;-55
2023/05/29 10:06:51;;;;;;;14.77;9.30;;;21.10;88.50;;;;;;4197109;28;20051;-53
2023/05/29 10:08:55;;;;;;;17.20;9.20;;;21.10;89.50;;;;;;4196871;28;20482;-54
2023/05/29 10:11:04;;;;;;;18.23;10.15;;;21.30;88.90;;;;;;4197142;28;20479;-59
2023/05/29 10:13:10;;;;;;;17.40;8.85;;;21.20;88.90;;;;;;4198082;28;20086;-58
2023/05/29 10:15:16;;;;;;;19.45;9.68;;;21.40;88.70;;;;;;4198745;28;20108;-56
2023/05/29 10:17:25;;;;;;;17.67;9.15;;;21.40;88.50;;;;;;4198637;28;20046;-59
2023/05/29 10:19:30;;;;;;;19.27;9.63;;;21.40;88.50;;;;;;4180945;28;20045;-59
2023/05/29 10:21:36;;;;;;;19.15;9.00;;;21.60;88.20;;;;;;4197282;28;20045;-56
2023/05/29 10:23:43;;;;;;;18.08;9.75;;;21.60;88.70;;;;;;4196099;28;20090;-56
2023/05/29 10:25:49;;;;;;;14.32;8.98;;;21.60;87.90;;;;;;4198063;28;20048;-56
2023/05/29 10:27:52;;;;;;;16.30;9.10;;;21.50;87.70;;;;;;4212684;28;20048;-56
2023/05/29 10:30:00;;;;;;;15.55;8.23;;;21.10;88.80;;;;;;4213571;28;20044;-56
2023/05/29 10:32:12;;;;;;;19.45;9.15;;;21.30;89.30;;;;;;4212884;28;20048;-53